sensor_id;sensor_type;location;lat;lon;timestamp;P1;durP1;ratioP1;P2;durP2;ratioP2
74213;SDS011;62576;55.694;37.494;2024-03-06T00:01:07;3.92;;;1.40;;
74213;SDS011;62576;55.694;37.494;2024-03-06T00:03:37;4.32;;;1.40;;
74213;SDS011;62576;55.694;37.494;2024-03-06T00:06:07;6.35;;;1.52;;
74213;SDS011;62576;55.694;37.494;2024-03-06T00:08:39;5.50;;;1.63;;
74213;SDS011;62576;55.694;37.494;2024-03-06T00:11:09;4.00;;;1.50;;
74213;SDS011;62576;55.694;37.494;2024-03-06T00:13:40;5.05;;;1.60;;
74213;SDS011;62576;55.694;37.494;2024-03-06T00:16:10;6.05;;;1.70;;
74213;SDS011;62576;55.694;37.494;2024-03-06T00:18:41;7.45;;;1.73;;
74213;SDS011;62576;55.694;37.494;2024-03-06T00:21:11;3.38;;;1.38;;
74213;SDS011;62576;55.694;37.494;2024-03-06T00:23:44;3.28;;;1.30;;
74213;SDS011;62576;55.694;37.494;2024-03-06T00:26:14;2.78;;;1.40;;
74213;SDS011;62576;55.694;37.494;2024-03-06T00:28:44;4.03;;;1.58;;
74213;SDS011;62576;55.694;37.494;2024-03-06T00:31:15;3.80;;;1.70;;
74213;SDS011;62576;55.694;37.494;2024-03-06T00:33:45;5.40;;;1.58;;
74213;SDS011;62576;55.694;37.494;2024-03-06T00:36:15;5.88;;;1.88;;
74213;SDS011;62576;55.694;37.494;2024-03-06T00:38:47;3.95;;;1.80;;
74213;SDS011;62576;55.694;37.494;2024-03-06T00:41:14;4.28;;;1.50;;
74213;SDS011;62576;55.694;37.494;2024-03-06T00:43:45;4.05;;;1.80;;
74213;SDS011;62576;55.694;37.494;2024-03-06T00:46:15;4.40;;;2.20;;
74213;SDS011;62576;55.694;37.494;2024-03-06T00:48:46;6.72;;;1.60;;
74213;SDS011;62576;55.694;37.494;2024-03-06T00:51:17;6.32;;;1.75;;
74213;SDS011;62576;55.694;37.494;2024-03-06T00:53:49;4.88;;;1.67;;
74213;SDS011;62576;55.694;37.494;2024-03-06T00:56:19;4.07;;;1.70;;
74213;SDS011;62576;55.694;37.494;2024-03-06T00:58:50;4.90;;;1.80;;
74213;SDS011;62576;55.694;37.494;2024-03-06T01:01:19;4.82;;;1.73;;
74213;SDS011;62576;55.694;37.494;2024-03-06T01:03:51;5.10;;;1.85;;
74213;SDS011;62576;55.694;37.494;2024-03-06T01:06:22;4.95;;;1.80;;
74213;SDS011;62576;55.694;37.494;2024-03-06T01:08:56;4.57;;;1.60;;
74213;SDS011;62576;55.694;37.494;2024-03-06T01:11:28;6.50;;;1.60;;
74213;SDS011;62576;55.694;37.494;2024-03-06T01:13:59;3.97;;;1.50;;
74213;SDS011;62576;55.694;37.494;2024-03-06T01:16:30;4.57;;;1.77;;
74213;SDS011;62576;55.694;37.494;2024-03-06T01:19:00;5.28;;;1.70;;
74213;SDS011;62576;55.694;37.494;2024-03-06T01:21:32;4.82;;;1.77;;
74213;SDS011;62576;55.694;37.494;2024-03-06T01:24:04;4.72;;;1.90;;
74213;SDS011;62576;55.694;37.494;2024-03-06T01:26:35;5.82;;;1.75;;
74213;SDS011;62576;55.694;37.494;2024-03-06T01:29:06;5.47;;;1.60;;
74213;SDS011;62576;55.694;37.494;2024-03-06T01:31:37;4.07;;;1.70;;
74213;SDS011;62576;55.694;37.494;2024-03-06T01:34:09;5.70;;;2.30;;
74213;SDS011;62576;55.694;37.494;2024-03-06T01:36:40;4.53;;;1.60;;
74213;SDS011;62576;55.694;37.494;2024-03-06T01:39:12;4.90;;;1.73;;
74213;SDS011;62576;55.694;37.494;2024-03-06T01:41:44;3.83;;;1.75;;
74213;SDS011;62576;55.694;37.494;2024-03-06T01:44:18;5.75;;;1.92;;
74213;SDS011;62576;55.694;37.494;2024-03-06T01:46:49;6.63;;;1.60;;
74213;SDS011;62576;55.694;37.494;2024-03-06T01:49:19;4.43;;;1.80;;
74213;SDS011;62576;55.694;37.494;2024-03-06T01:51:51;4.55;;;1.70;;
74213;SDS011;62576;55.694;37.494;2024-03-06T01:54:27;4.53;;;1.80;;
74213;SDS011;62576;55.694;37.494;2024-03-06T01:56:57;3.63;;;1.80;;
74213;SDS011;62576;55.694;37.494;2024-03-06T01:59:31;4.93;;;1.60;;
74213;SDS011;62576;55.694;37.494;2024-03-06T02:01:58;3.50;;;1.58;;
74213;SDS011;62576;55.694;37.494;2024-03-06T02:04:31;4.97;;;1.70;;
74213;SDS011;62576;55.694;37.494;2024-03-06T02:07:02;4.10;;;1.70;;
74213;SDS011;62576;55.694;37.494;2024-03-06T02:09:37;6.13;;;2.05;;
74213;SDS011;62576;55.694;37.494;2024-03-06T02:12:08;4.05;;;1.70;;
74213;SDS011;62576;55.694;37.494;2024-03-06T02:14:38;6.65;;;2.05;;
74213;SDS011;62576;55.694;37.494;2024-03-06T02:17:08;4.45;;;1.80;;
74213;SDS011;62576;55.694;37.494;2024-03-06T02:19:39;3.58;;;1.50;;
74213;SDS011;62576;55.694;37.494;2024-03-06T02:22:12;3.78;;;1.63;;
74213;SDS011;62576;55.694;37.494;2024-03-06T02:24:44;6.70;;;2.00;;
74213;SDS011;62576;55.694;37.494;2024-03-06T02:27:19;5.13;;;2.08;;
74213;SDS011;62576;55.694;37.494;2024-03-06T02:29:49;5.22;;;1.83;;
74213;SDS011;62576;55.694;37.494;2024-03-06T02:32:19;5.07;;;1.70;;
74213;SDS011;62576;55.694;37.494;2024-03-06T02:34:50;4.60;;;1.80;;
74213;SDS011;62576;55.694;37.494;2024-03-06T02:37:22;4.85;;;2.08;;
74213;SDS011;62576;55.694;37.494;2024-03-06T02:39:52;5.30;;;2.00;;
74213;SDS011;62576;55.694;37.494;2024-03-06T02:42:22;5.10;;;1.80;;
74213;SDS011;62576;55.694;37.494;2024-03-06T02:44:53;5.30;;;2.10;;
74213;SDS011;62576;55.694;37.494;2024-03-06T02:47:23;6.28;;;2.03;;
74213;SDS011;62576;55.694;37.494;2024-03-06T02:49:54;9.02;;;1.92;;
74213;SDS011;62576;55.694;37.494;2024-03-06T02:52:25;4.85;;;1.70;;
74213;SDS011;62576;55.694;37.494;2024-03-06T02:54:56;4.13;;;1.77;;
74213;SDS011;62576;55.694;37.494;2024-03-06T02:57:27;4.00;;;1.90;;
74213;SDS011;62576;55.694;37.494;2024-03-06T02:59:57;5.38;;;1.90;;
74213;SDS011;62576;55.694;37.494;2024-03-06T03:02:28;6.38;;;2.13;;
74213;SDS011;62576;55.694;37.494;2024-03-06T03:05:00;4.88;;;1.90;;
74213;SDS011;62576;55.694;37.494;2024-03-06T03:07:38;6.55;;;2.20;;
74213;SDS011;62576;55.694;37.494;2024-03-06T03:10:10;6.60;;;2.30;;
74213;SDS011;62576;55.694;37.494;2024-03-06T03:12:40;5.28;;;1.98;;
74213;SDS011;62576;55.694;37.494;2024-03-06T03:15:11;6.75;;;2.30;;
74213;SDS011;62576;55.694;37.494;2024-03-06T03:17:41;6.57;;;1.88;;
74213;SDS011;62576;55.694;37.494;2024-03-06T03:20:11;5.43;;;1.80;;
74213;SDS011;62576;55.694;37.494;2024-03-06T03:22:43;5.05;;;2.05;;
74213;SDS011;62576;55.694;37.494;2024-03-06T03:25:13;6.53;;;2.03;;
74213;SDS011;62576;55.694;37.494;2024-03-06T03:27:43;4.57;;;1.73;;
74213;SDS011;62576;55.694;37.494;2024-03-06T03:30:14;3.78;;;1.70;;
74213;SDS011;62576;55.694;37.494;2024-03-06T03:32:45;6.32;;;2.10;;
74213;SDS011;62576;55.694;37.494;2024-03-06T03:35:15;8.13;;;2.60;;
74213;SDS011;62576;55.694;37.494;2024-03-06T03:37:50;4.88;;;2.00;;
74213;SDS011;62576;55.694;37.494;2024-03-06T03:40:20;4.88;;;2.05;;
74213;SDS011;62576;55.694;37.494;2024-03-06T03:42:50;5.28;;;1.73;;
74213;SDS011;62576;55.694;37.494;2024-03-06T03:45:21;7.55;;;2.20;;
74213;SDS011;62576;55.694;37.494;2024-03-06T03:47:51;5.40;;;2.10;;
74213;SDS011;62576;55.694;37.494;2024-03-06T03:50:22;6.38;;;2.10;;
74213;SDS011;62576;55.694;37.494;2024-03-06T03:52:54;5.63;;;2.08;;
74213;SDS011;62576;55.694;37.494;2024-03-06T03:55:26;4.72;;;2.10;;
74213;SDS011;62576;55.694;37.494;2024-03-06T03:57:56;8.30;;;2.50;;
74213;SDS011;62576;55.694;37.494;2024-03-06T04:00:26;7.78;;;2.70;;
74213;SDS011;62576;55.694;37.494;2024-03-06T04:02:54;6.78;;;2.30;;
74213;SDS011;62576;55.694;37.494;2024-03-06T04:05:25;5.80;;;2.08;;
74213;SDS011;62576;55.694;37.494;2024-03-06T04:07:57;5.70;;;2.10;;
74213;SDS011;62576;55.694;37.494;2024-03-06T04:10:27;7.03;;;2.28;;
74213;SDS011;62576;55.694;37.494;2024-03-06T04:12:57;6.68;;;2.45;;
74213;SDS011;62576;55.694;37.494;2024-03-06T04:15:28;5.70;;;2.30;;
74213;SDS011;62576;55.694;37.494;2024-03-06T04:18:01;6.78;;;2.63;;
74213;SDS011;62576;55.694;37.494;2024-03-06T04:20:31;6.40;;;2.00;;
74213;SDS011;62576;55.694;37.494;2024-03-06T04:23:03;6.53;;;2.30;;
74213;SDS011;62576;55.694;37.494;2024-03-06T04:25:33;4.82;;;2.05;;
74213;SDS011;62576;55.694;37.494;2024-03-06T04:28:04;6.15;;;2.00;;
74213;SDS011;62576;55.694;37.494;2024-03-06T04:30:36;7.65;;;2.33;;
74213;SDS011;62576;55.694;37.494;2024-03-06T04:33:06;7.35;;;2.20;;
74213;SDS011;62576;55.694;37.494;2024-03-06T04:35:37;5.90;;;2.30;;
74213;SDS011;62576;55.694;37.494;2024-03-06T04:38:09;4.75;;;2.30;;
74213;SDS011;62576;55.694;37.494;2024-03-06T04:40:40;5.35;;;2.10;;
74213;SDS011;62576;55.694;37.494;2024-03-06T04:43:10;5.63;;;2.10;;
74213;SDS011;62576;55.694;37.494;2024-03-06T04:45:41;4.63;;;2.00;;
74213;SDS011;62576;55.694;37.494;2024-03-06T04:48:11;10.07;;;2.20;;
74213;SDS011;62576;55.694;37.494;2024-03-06T04:50:41;7.32;;;2.70;;
74213;SDS011;62576;55.694;37.494;2024-03-06T04:53:16;6.38;;;2.47;;
74213;SDS011;62576;55.694;37.494;2024-03-06T04:55:48;5.03;;;2.28;;
74213;SDS011;62576;55.694;37.494;2024-03-06T04:58:18;6.00;;;2.47;;
74213;SDS011;62576;55.694;37.494;2024-03-06T05:00:48;6.78;;;2.10;;
74213;SDS011;62576;55.694;37.494;2024-03-06T05:03:18;7.05;;;2.05;;
74213;SDS011;62576;55.694;37.494;2024-03-06T05:05:49;5.63;;;2.05;;
74213;SDS011;62576;55.694;37.494;2024-03-06T05:08:21;6.35;;;2.38;;
74213;SDS011;62576;55.694;37.494;2024-03-06T05:10:52;7.65;;;2.42;;
74213;SDS011;62576;55.694;37.494;2024-03-06T05:13:22;6.60;;;2.58;;
74213;SDS011;62576;55.694;37.494;2024-03-06T05:19:15;5.53;;;2.10;;
74213;SDS011;62576;55.694;37.494;2024-03-06T05:21:45;7.53;;;2.60;;
74213;SDS011;62576;55.694;37.494;2024-03-06T05:24:17;6.63;;;2.65;;
74213;SDS011;62576;55.694;37.494;2024-03-06T05:26:48;8.07;;;2.60;;
74213;SDS011;62576;55.694;37.494;2024-03-06T05:29:19;6.55;;;2.70;;
74213;SDS011;62576;55.694;37.494;2024-03-06T05:31:49;6.03;;;2.30;;
74213;SDS011;62576;55.694;37.494;2024-03-06T05:34:20;8.75;;;3.03;;
74213;SDS011;62576;55.694;37.494;2024-03-06T05:36:50;11.80;;;3.20;;
74213;SDS011;62576;55.694;37.494;2024-03-06T05:39:23;13.73;;;3.60;;
74213;SDS011;62576;55.694;37.494;2024-03-06T05:41:53;9.43;;;2.83;;
74213;SDS011;62576;55.694;37.494;2024-03-06T05:44:26;9.50;;;2.97;;
74213;SDS011;62576;55.694;37.494;2024-03-06T05:46:57;10.82;;;2.90;;
74213;SDS011;62576;55.694;37.494;2024-03-06T05:49:27;8.15;;;2.95;;
74213;SDS011;62576;55.694;37.494;2024-03-06T05:51:58;8.65;;;3.00;;
74213;SDS011;62576;55.694;37.494;2024-03-06T05:54:30;11.73;;;2.90;;
74213;SDS011;62576;55.694;37.494;2024-03-06T05:57:01;11.50;;;3.25;;
74213;SDS011;62576;55.694;37.494;2024-03-06T05:59:32;7.70;;;2.75;;
74213;SDS011;62576;55.694;37.494;2024-03-06T06:02:00;10.15;;;3.33;;
74213;SDS011;62576;55.694;37.494;2024-03-06T06:04:32;11.27;;;3.30;;
74213;SDS011;62576;55.694;37.494;2024-03-06T06:07:02;7.32;;;2.85;;
74213;SDS011;62576;55.694;37.494;2024-03-06T06:09:35;9.38;;;3.28;;
74213;SDS011;62576;55.694;37.494;2024-03-06T06:12:06;10.18;;;2.92;;
74213;SDS011;62576;55.694;37.494;2024-03-06T06:14:36;8.95;;;3.22;;
74213;SDS011;62576;55.694;37.494;2024-03-06T06:17:07;13.20;;;3.78;;
74213;SDS011;62576;55.694;37.494;2024-03-06T06:19:37;9.80;;;2.88;;
74213;SDS011;62576;55.694;37.494;2024-03-06T06:22:08;11.27;;;3.63;;
74213;SDS011;62576;55.694;37.494;2024-03-06T06:24:41;10.75;;;3.63;;
74213;SDS011;62576;55.694;37.494;2024-03-06T06:27:11;14.07;;;3.60;;
74213;SDS011;62576;55.694;37.494;2024-03-06T06:29:42;7.75;;;3.47;;
74213;SDS011;62576;55.694;37.494;2024-03-06T06:32:12;8.07;;;3.17;;
74213;SDS011;62576;55.694;37.494;2024-03-06T06:34:42;12.88;;;4.22;;
74213;SDS011;62576;55.694;37.494;2024-03-06T06:37:14;14.05;;;3.63;;
74213;SDS011;62576;55.694;37.494;2024-03-06T06:39:46;15.73;;;3.30;;
74213;SDS011;62576;55.694;37.494;2024-03-06T06:42:16;10.98;;;3.70;;
74213;SDS011;62576;55.694;37.494;2024-03-06T06:44:47;10.32;;;4.00;;
74213;SDS011;62576;55.694;37.494;2024-03-06T06:47:17;22.23;;;3.80;;
74213;SDS011;62576;55.694;37.494;2024-03-06T06:49:47;7.97;;;3.35;;
74213;SDS011;62576;55.694;37.494;2024-03-06T06:52:18;8.50;;;3.50;;
74213;SDS011;62576;55.694;37.494;2024-03-06T06:54:50;8.70;;;3.22;;
74213;SDS011;62576;55.694;37.494;2024-03-06T06:57:21;10.15;;;3.47;;
74213;SDS011;62576;55.694;37.494;2024-03-06T06:59:51;10.80;;;3.40;;
74213;SDS011;62576;55.694;37.494;2024-03-06T07:02:21;11.10;;;3.50;;
74213;SDS011;62576;55.694;37.494;2024-03-06T07:04:52;12.20;;;3.20;;
74213;SDS011;62576;55.694;37.494;2024-03-06T07:07:22;10.65;;;2.90;;
74213;SDS011;62576;55.694;37.494;2024-03-06T07:09:54;6.60;;;2.70;;
74213;SDS011;62576;55.694;37.494;2024-03-06T07:12:25;10.57;;;3.20;;
74213;SDS011;62576;55.694;37.494;2024-03-06T07:14:55;7.82;;;3.30;;
74213;SDS011;62576;55.694;37.494;2024-03-06T07:17:22;13.98;;;3.10;;
74213;SDS011;62576;55.694;37.494;2024-03-06T07:19:53;11.68;;;2.70;;
74213;SDS011;62576;55.694;37.494;2024-03-06T07:22:24;9.30;;;3.15;;
74213;SDS011;62576;55.694;37.494;2024-03-06T07:24:56;7.75;;;2.83;;
74213;SDS011;62576;55.694;37.494;2024-03-06T07:27:27;9.65;;;3.30;;
74213;SDS011;62576;55.694;37.494;2024-03-06T07:29:58;11.65;;;3.40;;
74213;SDS011;62576;55.694;37.494;2024-03-06T07:32:28;13.30;;;3.22;;
74213;SDS011;62576;55.694;37.494;2024-03-06T07:35:01;9.77;;;3.05;;
74213;SDS011;62576;55.694;37.494;2024-03-06T07:37:31;15.45;;;4.03;;
74213;SDS011;62576;55.694;37.494;2024-03-06T07:40:04;10.52;;;2.80;;
74213;SDS011;62576;55.694;37.494;2024-03-06T07:42:35;8.35;;;2.80;;
74213;SDS011;62576;55.694;37.494;2024-03-06T07:45:06;11.23;;;3.70;;
74213;SDS011;62576;55.694;37.494;2024-03-06T07:47:37;10.90;;;3.22;;
74213;SDS011;62576;55.694;37.494;2024-03-06T07:50:10;11.43;;;3.65;;
74213;SDS011;62576;55.694;37.494;2024-03-06T07:52:41;11.02;;;3.45;;
74213;SDS011;62576;55.694;37.494;2024-03-06T07:55:13;9.93;;;3.00;;
74213;SDS011;62576;55.694;37.494;2024-03-06T07:57:43;14.95;;;3.05;;
74213;SDS011;62576;55.694;37.494;2024-03-06T08:00:14;6.38;;;2.70;;
74213;SDS011;62576;55.694;37.494;2024-03-06T08:05:18;8.82;;;3.40;;
74213;SDS011;62576;55.694;37.494;2024-03-06T08:07:50;6.70;;;2.80;;
74213;SDS011;62576;55.694;37.494;2024-03-06T08:10:22;9.02;;;3.20;;
74213;SDS011;62576;55.694;37.494;2024-03-06T08:12:52;14.35;;;3.38;;
74213;SDS011;62576;55.694;37.494;2024-03-06T08:15:22;9.73;;;3.20;;
74213;SDS011;62576;55.694;37.494;2024-03-06T08:20:52;11.98;;;3.92;;
74213;SDS011;62576;55.694;37.494;2024-03-06T08:23:22;12.95;;;4.07;;
74213;SDS011;62576;55.694;37.494;2024-03-06T08:25:54;9.63;;;3.13;;
74213;SDS011;62576;55.694;37.494;2024-03-06T08:28:25;14.82;;;3.80;;
74213;SDS011;62576;55.694;37.494;2024-03-06T08:30:56;10.32;;;3.00;;
74213;SDS011;62576;55.694;37.494;2024-03-06T08:33:26;8.80;;;3.15;;
74213;SDS011;62576;55.694;37.494;2024-03-06T08:35:56;9.48;;;3.50;;
74213;SDS011;62576;55.694;37.494;2024-03-06T08:38:27;11.85;;;3.63;;
74213;SDS011;62576;55.694;37.494;2024-03-06T08:40:58;11.25;;;3.33;;
74213;SDS011;62576;55.694;37.494;2024-03-06T08:43:29;13.23;;;3.67;;
74213;SDS011;62576;55.694;37.494;2024-03-06T08:45:59;14.45;;;3.13;;
74213;SDS011;62576;55.694;37.494;2024-03-06T08:48:30;7.65;;;3.40;;
74213;SDS011;62576;55.694;37.494;2024-03-06T08:51:00;10.45;;;2.70;;
74213;SDS011;62576;55.694;37.494;2024-03-06T08:53:31;10.32;;;2.72;;
74213;SDS011;62576;55.694;37.494;2024-03-06T08:56:03;13.70;;;2.70;;
74213;SDS011;62576;55.694;37.494;2024-03-06T08:58:34;9.70;;;2.50;;
74213;SDS011;62576;55.694;37.494;2024-03-06T09:01:04;10.38;;;2.70;;
74213;SDS011;62576;55.694;37.494;2024-03-06T09:03:35;7.70;;;2.45;;
74213;SDS011;62576;55.694;37.494;2024-03-06T09:06:05;21.25;;;2.58;;
74213;SDS011;62576;55.694;37.494;2024-03-06T09:11:24;7.30;;;2.03;;
74213;SDS011;62576;55.694;37.494;2024-03-06T09:13:54;8.00;;;2.33;;
74213;SDS011;62576;55.694;37.494;2024-03-06T09:16:25;8.95;;;2.78;;
74213;SDS011;62576;55.694;37.494;2024-03-06T09:18:56;8.65;;;2.58;;
74213;SDS011;62576;55.694;37.494;2024-03-06T09:21:27;11.38;;;2.60;;
74213;SDS011;62576;55.694;37.494;2024-03-06T09:23:58;12.73;;;2.63;;
74213;SDS011;62576;55.694;37.494;2024-03-06T09:26:29;8.45;;;3.17;;
74213;SDS011;62576;55.694;37.494;2024-03-06T09:29:01;8.95;;;2.53;;
74213;SDS011;62576;55.694;37.494;2024-03-06T09:31:45;6.90;;;2.30;;
74213;SDS011;62576;55.694;37.494;2024-03-06T09:34:19;12.10;;;3.08;;
74213;SDS011;62576;55.694;37.494;2024-03-06T09:36:50;13.55;;;2.80;;
74213;SDS011;62576;55.694;37.494;2024-03-06T09:39:20;5.20;;;2.70;;
74213;SDS011;62576;55.694;37.494;2024-03-06T09:41:53;11.60;;;2.75;;
74213;SDS011;62576;55.694;37.494;2024-03-06T09:44:42;8.38;;;2.88;;
74213;SDS011;62576;55.694;37.494;2024-03-06T09:47:15;8.00;;;2.40;;
74213;SDS011;62576;55.694;37.494;2024-03-06T09:49:52;8.07;;;2.35;;
74213;SDS011;62576;55.694;37.494;2024-03-06T09:52:23;5.30;;;2.30;;
74213;SDS011;62576;55.694;37.494;2024-03-06T09:58:39;4.97;;;2.20;;
74213;SDS011;62576;55.694;37.494;2024-03-06T10:01:10;8.93;;;2.38;;
74213;SDS011;62576;55.694;37.494;2024-03-06T10:03:42;9.93;;;2.85;;
74213;SDS011;62576;55.694;37.494;2024-03-06T10:06:13;6.47;;;2.67;;
74213;SDS011;62576;55.694;37.494;2024-03-06T10:08:44;9.25;;;2.65;;
74213;SDS011;62576;55.694;37.494;2024-03-06T10:11:15;14.25;;;3.10;;
74213;SDS011;62576;55.694;37.494;2024-03-06T10:13:49;9.43;;;2.40;;
74213;SDS011;62576;55.694;37.494;2024-03-06T10:16:23;7.20;;;2.50;;
74213;SDS011;62576;55.694;37.494;2024-03-06T10:18:54;8.60;;;2.60;;
74213;SDS011;62576;55.694;37.494;2024-03-06T10:21:29;6.82;;;2.65;;
74213;SDS011;62576;55.694;37.494;2024-03-06T10:24:01;12.10;;;3.03;;
74213;SDS011;62576;55.694;37.494;2024-03-06T10:26:32;8.93;;;2.53;;
74213;SDS011;62576;55.694;37.494;2024-03-06T10:29:03;8.27;;;2.80;;
74213;SDS011;62576;55.694;37.494;2024-03-06T10:31:33;11.40;;;3.10;;
74213;SDS011;62576;55.694;37.494;2024-03-06T10:34:04;9.95;;;2.88;;
74213;SDS011;62576;55.694;37.494;2024-03-06T10:36:34;9.70;;;2.80;;
74213;SDS011;62576;55.694;37.494;2024-03-06T10:39:06;8.77;;;3.28;;
74213;SDS011;62576;55.694;37.494;2024-03-06T10:41:42;9.65;;;2.88;;
74213;SDS011;62576;55.694;37.494;2024-03-06T10:47:56;32.78;;;9.32;;
74213;SDS011;62576;55.694;37.494;2024-03-06T10:50:28;8.93;;;2.65;;
74213;SDS011;62576;55.694;37.494;2024-03-06T10:52:59;33.47;;;9.60;;
74213;SDS011;62576;55.694;37.494;2024-03-06T10:55:31;25.80;;;8.73;;
74213;SDS011;62576;55.694;37.494;2024-03-06T10:58:03;22.38;;;6.10;;
74213;SDS011;62576;55.694;37.494;2024-03-06T11:00:38;11.98;;;4.60;;
74213;SDS011;62576;55.694;37.494;2024-03-06T11:03:11;16.45;;;4.47;;
74213;SDS011;62576;55.694;37.494;2024-03-06T11:05:43;22.25;;;6.38;;
74213;SDS011;62576;55.694;37.494;2024-03-06T11:08:15;13.30;;;4.60;;
74213;SDS011;62576;55.694;37.494;2024-03-06T11:10:49;9.90;;;2.53;;
74213;SDS011;62576;55.694;37.494;2024-03-06T11:13:49;17.15;;;5.57;;
74213;SDS011;62576;55.694;37.494;2024-03-06T11:16:32;21.85;;;7.60;;
74213;SDS011;62576;55.694;37.494;2024-03-06T11:23:03;5.78;;;2.22;;
74213;SDS011;62576;55.694;37.494;2024-03-06T11:25:56;6.18;;;2.50;;
74213;SDS011;62576;55.694;37.494;2024-03-06T11:28:31;8.68;;;2.67;;
74213;SDS011;62576;55.694;37.494;2024-03-06T11:31:03;11.60;;;2.58;;
74213;SDS011;62576;55.694;37.494;2024-03-06T11:33:34;7.32;;;1.95;;
74213;SDS011;62576;55.694;37.494;2024-03-06T11:36:18;5.65;;;2.22;;
74213;SDS011;62576;55.694;37.494;2024-03-06T11:38:52;9.20;;;2.35;;
74213;SDS011;62576;55.694;37.494;2024-03-06T11:41:26;9.23;;;2.63;;
74213;SDS011;62576;55.694;37.494;2024-03-06T11:43:59;5.90;;;2.10;;
74213;SDS011;62576;55.694;37.494;2024-03-06T11:49:16;9.13;;;2.60;;
74213;SDS011;62576;55.694;37.494;2024-03-06T11:51:50;5.85;;;2.55;;
74213;SDS011;62576;55.694;37.494;2024-03-06T11:54:22;6.28;;;2.47;;
74213;SDS011;62576;55.694;37.494;2024-03-06T11:56:54;11.85;;;3.00;;
74213;SDS011;62576;55.694;37.494;2024-03-06T11:59:26;8.85;;;3.30;;
74213;SDS011;62576;55.694;37.494;2024-03-06T12:01:55;12.13;;;3.40;;
74213;SDS011;62576;55.694;37.494;2024-03-06T12:04:31;13.93;;;3.35;;
74213;SDS011;62576;55.694;37.494;2024-03-06T12:07:19;11.32;;;3.25;;
74213;SDS011;62576;55.694;37.494;2024-03-06T12:09:51;11.87;;;3.63;;
74213;SDS011;62576;55.694;37.494;2024-03-06T12:12:22;11.35;;;3.88;;
74213;SDS011;62576;55.694;37.494;2024-03-06T12:14:57;13.63;;;4.20;;
74213;SDS011;62576;55.694;37.494;2024-03-06T12:17:28;10.30;;;3.58;;
74213;SDS011;62576;55.694;37.494;2024-03-06T12:20:02;9.23;;;3.53;;
74213;SDS011;62576;55.694;37.494;2024-03-06T12:22:35;10.48;;;3.50;;
74213;SDS011;62576;55.694;37.494;2024-03-06T12:25:05;10.50;;;3.45;;
74213;SDS011;62576;55.694;37.494;2024-03-06T12:27:36;15.45;;;4.25;;
74213;SDS011;62576;55.694;37.494;2024-03-06T12:30:08;9.68;;;3.80;;
74213;SDS011;62576;55.694;37.494;2024-03-06T12:32:41;12.55;;;3.88;;
74213;SDS011;62576;55.694;37.494;2024-03-06T12:35:09;7.97;;;3.42;;
74213;SDS011;62576;55.694;37.494;2024-03-06T12:37:41;9.80;;;3.33;;
74213;SDS011;62576;55.694;37.494;2024-03-06T12:40:12;10.80;;;3.40;;
74213;SDS011;62576;55.694;37.494;2024-03-06T12:42:43;11.65;;;3.60;;
74213;SDS011;62576;55.694;37.494;2024-03-06T12:45:14;12.70;;;3.47;;
74213;SDS011;62576;55.694;37.494;2024-03-06T12:47:42;12.18;;;3.85;;
74213;SDS011;62576;55.694;37.494;2024-03-06T12:50:13;9.05;;;3.45;;
74213;SDS011;62576;55.694;37.494;2024-03-06T12:52:46;12.55;;;3.38;;
74213;SDS011;62576;55.694;37.494;2024-03-06T12:55:16;10.80;;;3.70;;
74213;SDS011;62576;55.694;37.494;2024-03-06T12:57:47;11.52;;;4.05;;
74213;SDS011;62576;55.694;37.494;2024-03-06T13:00:19;7.32;;;3.22;;
74213;SDS011;62576;55.694;37.494;2024-03-06T13:02:50;15.80;;;4.05;;
74213;SDS011;62576;55.694;37.494;2024-03-06T13:05:20;9.90;;;3.90;;
74213;SDS011;62576;55.694;37.494;2024-03-06T13:07:52;9.00;;;3.10;;
74213;SDS011;62576;55.694;37.494;2024-03-06T13:10:22;10.50;;;3.20;;
74213;SDS011;62576;55.694;37.494;2024-03-06T13:12:53;12.95;;;3.50;;
74213;SDS011;62576;55.694;37.494;2024-03-06T13:15:23;13.43;;;3.35;;
74213;SDS011;62576;55.694;37.494;2024-03-06T13:17:53;7.93;;;2.88;;
74213;SDS011;62576;55.694;37.494;2024-03-06T13:20:24;12.18;;;3.50;;
74213;SDS011;62576;55.694;37.494;2024-03-06T13:22:56;6.88;;;3.00;;
74213;SDS011;62576;55.694;37.494;2024-03-06T13:25:27;8.07;;;2.63;;
74213;SDS011;62576;55.694;37.494;2024-03-06T13:27:59;8.17;;;2.77;;
74213;SDS011;62576;55.694;37.494;2024-03-06T13:30:31;10.88;;;2.55;;
74213;SDS011;62576;55.694;37.494;2024-03-06T13:33:03;8.00;;;2.60;;
74213;SDS011;62576;55.694;37.494;2024-03-06T13:35:33;10.90;;;2.90;;
74213;SDS011;62576;55.694;37.494;2024-03-06T13:38:05;8.55;;;2.33;;
74213;SDS011;62576;55.694;37.494;2024-03-06T13:40:36;10.85;;;2.47;;
74213;SDS011;62576;55.694;37.494;2024-03-06T13:43:07;7.28;;;2.50;;
74213;SDS011;62576;55.694;37.494;2024-03-06T13:45:38;10.20;;;2.15;;
74213;SDS011;62576;55.694;37.494;2024-03-06T13:48:19;7.10;;;2.55;;
74213;SDS011;62576;55.694;37.494;2024-03-06T13:50:50;9.93;;;3.03;;
74213;SDS011;62576;55.694;37.494;2024-03-06T13:53:22;6.30;;;2.20;;
74213;SDS011;62576;55.694;37.494;2024-03-06T13:55:52;6.13;;;2.30;;
74213;SDS011;62576;55.694;37.494;2024-03-06T13:58:23;4.93;;;2.33;;
74213;SDS011;62576;55.694;37.494;2024-03-06T14:00:54;9.77;;;2.30;;
74213;SDS011;62576;55.694;37.494;2024-03-06T14:03:24;6.28;;;2.67;;
74213;SDS011;62576;55.694;37.494;2024-03-06T14:05:55;5.50;;;1.98;;
74213;SDS011;62576;55.694;37.494;2024-03-06T14:08:27;6.35;;;1.88;;
74213;SDS011;62576;55.694;37.494;2024-03-06T14:10:57;7.22;;;2.20;;
74213;SDS011;62576;55.694;37.494;2024-03-06T14:13:27;6.65;;;2.35;;
74213;SDS011;62576;55.694;37.494;2024-03-06T14:15:58;5.28;;;1.88;;
74213;SDS011;62576;55.694;37.494;2024-03-06T14:18:29;8.82;;;2.17;;
74213;SDS011;62576;55.694;37.494;2024-03-06T14:21:00;5.70;;;1.67;;
74213;SDS011;62576;55.694;37.494;2024-03-06T14:23:32;6.07;;;1.60;;
74213;SDS011;62576;55.694;37.494;2024-03-06T14:26:03;6.60;;;1.80;;
74213;SDS011;62576;55.694;37.494;2024-03-06T14:28:34;5.25;;;1.70;;
74213;SDS011;62576;55.694;37.494;2024-03-06T14:31:06;6.30;;;2.10;;
74213;SDS011;62576;55.694;37.494;2024-03-06T14:36:05;7.75;;;1.80;;
74213;SDS011;62576;55.694;37.494;2024-03-06T14:38:41;5.88;;;1.70;;
74213;SDS011;62576;55.694;37.494;2024-03-06T14:41:13;8.38;;;1.77;;
74213;SDS011;62576;55.694;37.494;2024-03-06T14:43:44;5.68;;;1.80;;
74213;SDS011;62576;55.694;37.494;2024-03-06T14:46:15;6.13;;;1.65;;
74213;SDS011;62576;55.694;37.494;2024-03-06T14:48:46;10.70;;;1.67;;
74213;SDS011;62576;55.694;37.494;2024-03-06T14:51:17;6.32;;;1.58;;
74213;SDS011;62576;55.694;37.494;2024-03-06T14:53:49;5.13;;;1.50;;
74213;SDS011;62576;55.694;37.494;2024-03-06T14:56:19;7.72;;;1.60;;
74213;SDS011;62576;55.694;37.494;2024-03-06T14:58:50;5.30;;;1.35;;
74213;SDS011;62576;55.694;37.494;2024-03-06T15:01:18;9.10;;;1.90;;
74213;SDS011;62576;55.694;37.494;2024-03-06T15:03:48;2.95;;;1.63;;
74213;SDS011;62576;55.694;37.494;2024-03-06T15:06:18;5.53;;;1.73;;
74213;SDS011;62576;55.694;37.494;2024-03-06T15:08:51;4.25;;;1.50;;
74213;SDS011;62576;55.694;37.494;2024-03-06T15:14:44;5.63;;;1.70;;
74213;SDS011;62576;55.694;37.494;2024-03-06T15:19:47;5.18;;;1.48;;
74213;SDS011;62576;55.694;37.494;2024-03-06T15:22:18;11.70;;;1.70;;
74213;SDS011;62576;55.694;37.494;2024-03-06T15:24:50;10.63;;;2.05;;
74213;SDS011;62576;55.694;37.494;2024-03-06T15:27:20;7.93;;;2.08;;
74213;SDS011;62576;55.694;37.494;2024-03-06T15:29:51;5.70;;;1.70;;